Abingdon, VA

10:02 PM EDT am 30. März 2015 (GMT -0400)
Hillside Drive | | Change Station
CLOSE
Current Station
Persönliche Wetterstationen
Location: Abingdon, VA
Höhe: 2192 ft
Wetterstationen in der Umgebung

Höhe 2192 ft 36.72 °N, 81.98 °W | Updated 12 minutes ago

Heiter
Heiter
45.1 °F
gefühlte 45 °F
N
0.0
Wind Wechselnd Wind aus West

Heute
Max. -- | schwach -- °F
--% Regenrisiko
Gestern
Max. -- | schwach -- °F
Precip. -- inch
7:17 AM 7:48 PM
Zweites Viertel, 83% visible
Druck 30.09 inch
Sichtweite 10.0 Meilen
Wolken Heiter
Windchill 45 °F
Taupunkt 27 °F
Feuchtigkeit 48%
Regen 0.05 inch
Schneehöhe Nicht verfügbar..
UV 0 von 12
Pollen 7.70 von 12
Luftqualität Nicht verfügbar..
Flu Activity Nicht verfügbar..
METAR KVJI 310155Z AUTO 28003KT 10SM CLR 12/M04 A3009 RMK AO2 T01191045

More Conditions Fewer Conditions

Druck 30.09 inch
Sichtweite 10.0 Meilen
Wolken Heiter
Windchill 45 °F
Taupunkt 27 °F
Feuchtigkeit 48%
Regen 0.05 inch
Schneehöhe Nicht verfügbar..
UV 0 von 12
Pollen 7.70 von 12
Luftqualität Nicht verfügbar..
Flu Activity Nicht verfügbar..
METAR KVJI 310155Z AUTO 28003KT 10SM CLR 12/M04 A3009 RMK AO2 T01191045

More Conditions Fewer Conditions

10-Day Weather Forecast

Almanac

Astronomie

Mar. 30, 2015 Aufgang Untergang
Genaue Zeit
Bürgerliche Dämmerung
Nautische Dämmerung
Astronomische Dämmerung
Mond
Länge des sichtbaren Lichts
Tageslänge
Tomorrow will be .
, % of the Moon is Illuminated

Heutige Rekorde

State Highs State Lows

Community

WunderPhotos

Upload Photos

1,809,664 Fotos hochgeladen!

WunderBlogs® & News

Nearby

Luftqualität

  Luftqualität LQ Index Schadstoff
Not available.

Schneehöhe

Station Depth Höhe

Erdbebenaktivität

Stadt Distance Mag. Time & Date
Minimum magnitude displayed is 2.5.

küstennahe Wassertemperaturen

Ort Temperatur

Stations

Wetterstationen in der Umgebung

Stationsstandort Temp. Windchill Taupunkt Feuchtigkeit Wind Precip. Höhe Aktualisiert Art